createdAt,value
2019-05-29T00:00:12.971Z,25.80
2019-05-29T00:02:41.060Z,25.67
2019-05-29T00:05:10.242Z,25.33
2019-05-29T00:07:39.127Z,24.86
2019-05-29T00:10:08.959Z,25.66
2019-05-29T00:12:37.654Z,25.13
2019-05-29T00:15:06.348Z,26.24
2019-05-29T00:17:34.628Z,25.66
2019-05-29T00:20:02.953Z,26.60
2019-05-29T00:22:31.266Z,25.76
2019-05-29T00:24:59.577Z,26.55
2019-05-29T00:27:27.864Z,24.49
2019-05-29T00:29:56.254Z,25.30
2019-05-29T00:32:24.571Z,25.12
2019-05-29T00:34:53.278Z,24.83
2019-05-29T00:37:21.965Z,25.75
2019-05-29T00:39:50.659Z,25.05
2019-05-29T00:42:18.992Z,25.16
2019-05-29T00:44:47.721Z,24.72
2019-05-29T00:47:16.127Z,26.61
2019-05-29T00:49:44.418Z,26.07
2019-05-29T00:52:14.186Z,26.43
2019-05-29T00:54:43.712Z,25.25
2019-05-29T00:57:12.920Z,26.13
2019-05-29T00:59:41.545Z,25.59
2019-05-29T01:02:11.797Z,25.53
2019-05-29T01:04:40.712Z,26.48
2019-05-29T01:07:10.172Z,25.50
2019-05-29T01:09:39.014Z,25.33
2019-05-29T01:12:07.601Z,25.34
2019-05-29T01:14:49.216Z,25.10
2019-05-29T01:17:06.099Z,25.32
2019-05-29T01:19:35.102Z,25.98
2019-05-29T01:22:03.522Z,26.24
2019-05-29T01:24:31.925Z,25.74
2019-05-29T01:27:00.355Z,26.34
2019-05-29T01:29:29.039Z,27.37
2019-05-29T01:31:57.345Z,27.18
2019-05-29T01:34:25.668Z,27.05
2019-05-29T01:36:53.994Z,26.27
2019-05-29T01:39:23.407Z,26.48
2019-05-29T01:41:52.380Z,25.47
2019-05-29T01:44:21.444Z,25.81
2019-05-29T01:46:49.972Z,26.10
2019-05-29T01:49:19.506Z,25.64
2019-05-29T01:51:47.967Z,25.13
2019-05-29T01:54:17.482Z,25.74
2019-05-29T01:56:45.972Z,26.50
2019-05-29T01:59:15.619Z,27.70
2019-05-29T02:01:44.259Z,27.34
2019-05-29T02:04:12.565Z,25.41
2019-05-29T02:06:40.877Z,27.51
2019-05-29T02:09:09.186Z,28.15
2019-05-29T02:11:37.877Z,26.02
2019-05-29T02:14:06.251Z,26.93
2019-05-29T02:16:34.848Z,26.32
2019-05-29T02:19:03.532Z,26.83
2019-05-29T02:21:31.908Z,26.06
2019-05-29T02:24:00.608Z,26.10
2019-05-29T02:26:28.979Z,26.53
2019-05-29T02:28:57.302Z,26.57
2019-05-29T02:31:27.032Z,26.12
2019-05-29T02:33:55.981Z,26.15
2019-05-29T02:36:26.616Z,26.15
2019-05-29T02:38:55.003Z,26.63
2019-05-29T02:41:24.308Z,27.24
2019-05-29T02:43:53.408Z,26.49
2019-05-29T02:46:23.834Z,25.85
2019-05-29T02:48:53.027Z,26.98
2019-05-29T02:51:22.082Z,25.60
2019-05-29T02:53:50.679Z,26.93
2019-05-29T02:56:20.423Z,27.05
2019-05-29T02:58:49.016Z,25.93
2019-05-29T03:01:17.306Z,26.66
2019-05-29T03:03:45.975Z,26.97
2019-05-29T03:06:14.678Z,26.68
2019-05-29T03:08:43.269Z,25.06
2019-05-29T03:11:11.965Z,25.69
2019-05-29T03:13:40.233Z,25.68
2019-05-29T03:16:11.978Z,25.86
2019-05-29T03:18:38.747Z,26.23
2019-05-29T03:21:07.064Z,25.90
2019-05-29T03:23:36.146Z,25.60
2019-05-29T03:26:05.212Z,25.98
2019-05-29T03:28:35.110Z,25.52
2019-05-29T03:31:03.795Z,26.08
2019-05-29T03:33:43.793Z,25.70
2019-05-29T03:36:02.623Z,25.15
2019-05-29T03:38:32.681Z,25.42
2019-05-29T03:41:01.353Z,24.94
2019-05-29T03:43:31.113Z,24.88
2019-05-29T03:45:59.686Z,26.12
2019-05-29T03:48:29.635Z,25.86
2019-05-29T03:50:58.656Z,25.49
2019-05-29T03:53:27.166Z,25.90
2019-05-29T03:55:55.656Z,25.68
2019-05-29T03:58:24.301Z,26.10
2019-05-29T04:00:52.994Z,25.96
2019-05-29T04:03:21.302Z,26.56
2019-05-29T04:05:49.961Z,25.80
2019-05-29T04:08:18.251Z,24.86
2019-05-29T04:10:46.577Z,25.99
2019-05-29T04:13:14.945Z,24.50
2019-05-29T04:15:43.400Z,25.12
2019-05-29T04:18:12.071Z,25.09
2019-05-29T04:20:40.760Z,24.63
2019-05-29T04:23:09.133Z,25.04
2019-05-29T04:25:42.279Z,25.23
2019-05-29T04:28:08.930Z,25.40
2019-05-29T04:30:39.079Z,24.94
2019-05-29T04:33:07.417Z,25.54
2019-05-29T04:35:36.822Z,26.01
2019-05-29T04:38:05.591Z,24.96
2019-05-29T04:40:35.052Z,24.85
2019-05-29T04:43:04.492Z,24.90
2019-05-29T04:45:33.490Z,24.60
2019-05-29T04:48:02.864Z,26.74
2019-05-29T04:50:31.923Z,25.68
2019-05-29T04:53:01.288Z,24.53
2019-05-29T04:55:30.698Z,25.58
2019-05-29T04:57:59.392Z,25.62
2019-05-29T05:00:28.926Z,25.43
2019-05-29T05:02:57.378Z,24.74
2019-05-29T05:05:25.951Z,25.66
2019-05-29T05:07:54.560Z,25.33
2019-05-29T05:10:41.211Z,25.97
2019-05-29T05:13:09.938Z,26.21
2019-05-29T05:15:39.972Z,26.08
2019-05-29T05:18:09.080Z,25.55
2019-05-29T05:20:38.381Z,26.14
2019-05-29T05:23:06.818Z,25.90
2019-05-29T05:25:36.345Z,25.64
2019-05-29T05:28:06.189Z,25.35
2019-05-29T05:30:34.567Z,25.36
2019-05-29T05:33:02.999Z,26.32
2019-05-29T05:35:32.585Z,25.95
2019-05-29T05:38:01.022Z,26.18
2019-05-29T05:40:30.651Z,25.26
2019-05-29T05:42:59.459Z,25.23
2019-05-29T05:45:27.785Z,25.46
2019-05-29T05:47:58.022Z,25.39
2019-05-29T05:50:26.413Z,25.98
2019-05-29T05:52:54.722Z,25.06
2019-05-29T05:55:23.403Z,25.63
2019-05-29T05:57:52.092Z,39.05
2019-05-29T06:00:35.886Z,35.88
2019-05-29T06:03:05.365Z,37.75
2019-05-29T06:05:34.017Z,35.23
2019-05-29T06:08:02.634Z,34.17
2019-05-29T06:10:32.013Z,32.70
2019-05-29T06:13:00.521Z,32.57
2019-05-29T06:15:29.106Z,33.05
2019-05-29T06:18:19.493Z,34.56
2019-05-29T06:20:27.813Z,35.17
2019-05-29T06:22:56.502Z,34.00
2019-05-29T06:25:26.043Z,33.68
2019-05-29T06:27:54.510Z,35.91
2019-05-29T06:30:23.438Z,34.35
2019-05-29T06:32:51.858Z,35.42
2019-05-29T06:35:20.304Z,33.28
2019-05-29T06:37:48.683Z,32.36
2019-05-29T06:40:26.065Z,33.70
2019-05-29T06:42:54.358Z,32.34
2019-05-29T06:45:25.851Z,33.89
2019-05-29T06:47:54.570Z,29.34
2019-05-29T06:50:22.944Z,29.44
2019-05-29T06:52:51.619Z,29.79
2019-05-29T06:55:20.016Z,30.29
2019-05-29T06:57:48.396Z,29.29
2019-05-29T07:00:33.998Z,30.33
2019-05-29T07:02:46.969Z,30.33
2019-05-29T07:05:15.395Z,30.01
2019-05-29T07:07:44.484Z,30.57
2019-05-29T07:10:13.665Z,30.87
2019-05-29T07:12:42.449Z,29.85
2019-05-29T07:15:11.969Z,29.62
2019-05-29T07:17:40.650Z,30.07
2019-05-29T07:20:09.800Z,30.70
2019-05-29T07:22:38.916Z,31.61
2019-05-29T07:25:07.871Z,30.55
2019-05-29T07:27:36.860Z,31.97
2019-05-29T07:30:06.989Z,29.59
2019-05-29T07:32:35.278Z,30.92
2019-05-29T07:35:04.736Z,30.54
2019-05-29T07:37:33.687Z,30.36
2019-05-29T07:40:02.055Z,30.64
2019-05-29T07:42:30.427Z,30.59
2019-05-29T07:44:58.747Z,30.48
2019-05-29T07:47:27.124Z,30.64
2019-05-29T07:49:55.760Z,29.89
2019-05-29T07:52:24.447Z,29.73
2019-05-29T07:54:52.837Z,30.44
2019-05-29T07:57:21.522Z,29.39
2019-05-29T07:59:50.211Z,31.90
2019-05-29T08:02:18.505Z,30.10
2019-05-29T08:04:47.289Z,29.78
2019-05-29T08:07:15.628Z,28.61
2019-05-29T08:09:43.927Z,30.84
2019-05-29T08:12:13.197Z,31.32
2019-05-29T08:14:41.858Z,29.15
2019-05-29T08:17:10.625Z,30.50
2019-05-29T08:19:53.540Z,29.54
2019-05-29T08:22:09.038Z,32.75
2019-05-29T08:24:37.718Z,34.80
2019-05-29T08:27:06.114Z,35.05
2019-05-29T08:29:34.413Z,34.50
2019-05-29T08:32:02.818Z,33.10
2019-05-29T08:34:31.111Z,31.54
2019-05-29T08:37:06.653Z,31.37
2019-05-29T08:39:36.040Z,31.87
2019-05-29T08:42:21.201Z,31.92
2019-05-29T08:44:29.961Z,30.48
2019-05-29T08:47:09.684Z,32.10
2019-05-29T08:49:28.387Z,30.89
2019-05-29T08:52:10.542Z,30.78
2019-05-29T08:54:27.105Z,30.08
2019-05-29T08:56:55.475Z,31.39
2019-05-29T08:59:23.777Z,30.94
2019-05-29T09:01:53.790Z,30.04
2019-05-29T09:04:22.154Z,29.72
2019-05-29T09:06:51.187Z,29.95
2019-05-29T09:09:19.564Z,29.86
2019-05-29T09:11:49.880Z,28.85
2019-05-29T09:14:18.412Z,30.54
2019-05-29T09:16:46.739Z,30.04
2019-05-29T09:19:16.244Z,31.23
2019-05-29T09:21:44.819Z,30.41
2019-05-29T09:24:14.717Z,30.72
2019-05-29T09:26:46.422Z,30.90
2019-05-29T09:29:16.764Z,31.38
2019-05-29T09:31:43.813Z,31.54
2019-05-29T09:34:12.135Z,30.44
2019-05-29T09:36:40.478Z,31.08
2019-05-29T09:39:09.402Z,31.84
2019-05-29T09:41:37.894Z,31.23
2019-05-29T09:44:06.819Z,31.41
2019-05-29T09:46:35.224Z,31.94
2019-05-29T09:49:03.598Z,30.68
2019-05-29T09:51:31.914Z,31.56
2019-05-29T09:54:01.427Z,30.19
2019-05-29T09:56:30.598Z,29.47
2019-05-29T09:59:00.381Z,32.71
2019-05-29T10:01:29.815Z,31.98
2019-05-29T10:04:00.040Z,32.32
2019-05-29T10:06:28.914Z,31.53
2019-05-29T10:08:58.029Z,32.53
2019-05-29T10:11:26.718Z,30.97
2019-05-29T10:13:56.519Z,30.72
2019-05-29T10:16:25.205Z,30.10
2019-05-29T10:18:54.270Z,29.70
2019-05-29T10:21:38.630Z,30.38
2019-05-29T10:23:54.758Z,30.90
2019-05-29T10:26:23.776Z,31.89
2019-05-29T10:31:02.892Z,31.09
2019-05-29T10:31:22.457Z,34.32
2019-05-29T10:33:52.327Z,33.65
2019-05-29T10:36:21.414Z,30.74
2019-05-29T10:38:50.751Z,31.61
2019-05-29T10:41:19.454Z,32.96
2019-05-29T10:43:49.076Z,32.65
2019-05-29T10:46:17.465Z,34.63
2019-05-29T10:48:49.375Z,33.30
2019-05-29T10:51:16.054Z,33.75
2019-05-29T10:53:44.353Z,31.99
2019-05-29T10:56:12.689Z,33.25
2019-05-29T10:58:49.686Z,33.60
2019-05-29T11:01:11.782Z,32.07
2019-05-29T11:03:40.179Z,33.03
2019-05-29T11:06:08.492Z,33.05
2019-05-29T11:08:36.795Z,32.25
2019-05-29T11:11:05.132Z,32.11
2019-05-29T11:13:33.445Z,33.23
2019-05-29T11:16:01.739Z,33.11
2019-05-29T11:18:30.126Z,32.27
2019-05-29T11:20:58.800Z,32.26
2019-05-29T11:23:27.338Z,33.00
2019-05-29T11:25:56.052Z,33.30
2019-05-29T11:28:24.663Z,34.18
2019-05-29T11:30:53.727Z,31.81
2019-05-29T11:33:23.012Z,32.84
2019-05-29T11:36:06.361Z,32.76
2019-05-29T11:38:22.596Z,32.17
2019-05-29T11:41:05.334Z,32.34
2019-05-29T11:43:21.183Z,32.97
2019-05-29T11:45:51.107Z,33.48
2019-05-29T11:48:19.591Z,33.72
2019-05-29T11:50:47.891Z,33.63
2019-05-29T11:53:16.219Z,34.12
2019-05-29T11:55:44.527Z,34.17
2019-05-29T11:58:30.028Z,36.44
2019-05-29T12:00:42.875Z,34.37
2019-05-29T12:03:11.641Z,33.50
2019-05-29T12:05:42.157Z,30.30
2019-05-29T12:08:10.488Z,30.95
2019-05-29T12:10:38.811Z,31.26
2019-05-29T12:13:07.150Z,33.31
2019-05-29T12:15:35.579Z,31.92
2019-05-29T12:18:21.849Z,29.36
2019-05-29T12:20:34.247Z,28.48
2019-05-29T12:23:25.764Z,29.33
2019-05-29T12:25:32.923Z,30.38
2019-05-29T12:28:01.422Z,29.72
2019-05-29T12:30:30.281Z,28.45
2019-05-29T12:32:59.221Z,30.15
2019-05-29T12:35:27.625Z,30.15
2019-05-29T12:37:57.287Z,28.83
2019-05-29T12:40:26.108Z,29.44
2019-05-29T12:42:55.649Z,28.45
2019-05-29T12:45:24.642Z,28.11
2019-05-29T12:47:54.224Z,29.06
2019-05-29T12:50:23.067Z,29.34
2019-05-29T12:52:51.401Z,29.43
2019-05-29T12:55:20.147Z,29.09
2019-05-29T12:57:48.485Z,27.85
2019-05-29T13:00:19.701Z,30.42
2019-05-29T13:02:47.986Z,29.79
2019-05-29T13:05:20.541Z,29.25
2019-05-29T13:07:46.768Z,28.71
2019-05-29T13:10:30.154Z,28.78
2019-05-29T13:12:46.606Z,28.56
2019-05-29T13:15:15.931Z,30.82
2019-05-29T13:17:44.588Z,30.32
2019-05-29T13:20:21.674Z,30.34
2019-05-29T13:22:44.669Z,32.27
2019-05-29T13:25:14.379Z,30.56
2019-05-29T13:27:42.681Z,30.31
2019-05-29T13:30:13.520Z,30.13
2019-05-29T13:32:42.245Z,29.88
2019-05-29T13:35:11.756Z,30.72
2019-05-29T13:37:40.447Z,32.15
2019-05-29T13:40:09.190Z,32.78
2019-05-29T13:42:37.591Z,32.90
2019-05-29T13:45:16.835Z,31.72
2019-05-29T13:47:38.056Z,32.00
2019-05-29T13:50:12.287Z,32.57
2019-05-29T13:52:39.887Z,30.41
2019-05-29T13:55:09.093Z,31.59
2019-05-29T13:57:39.875Z,31.90
2019-05-29T14:00:30.291Z,30.51
2019-05-29T14:02:41.859Z,31.38
2019-05-29T14:05:11.296Z,31.76
2019-05-29T14:07:39.587Z,31.39
2019-05-29T14:10:09.629Z,31.27
2019-05-29T14:12:38.530Z,32.93
2019-05-29T14:15:12.161Z,30.74
2019-05-29T14:17:40.865Z,29.14
2019-05-29T14:20:11.301Z,29.49
2019-05-29T14:22:39.618Z,28.85
2019-05-29T14:25:11.670Z,28.78
2019-05-29T14:27:40.604Z,27.86
2019-05-29T14:30:10.868Z,29.07
2019-05-29T14:32:39.521Z,29.53
2019-05-29T14:35:09.512Z,28.92
2019-05-29T14:37:38.984Z,31.42
2019-05-29T14:40:08.113Z,29.81
2019-05-29T14:42:37.432Z,29.84
2019-05-29T14:45:10.389Z,28.49
2019-05-29T14:47:39.001Z,30.85
2019-05-29T14:50:08.801Z,31.78
2019-05-29T14:52:37.252Z,30.65
2019-05-29T14:55:06.810Z,32.33
2019-05-29T14:57:35.145Z,30.60
2019-05-29T15:00:18.878Z,31.74
2019-05-29T15:02:38.687Z,32.32
2019-05-29T15:05:09.761Z,32.34
2019-05-29T15:07:38.868Z,31.35
2019-05-29T15:10:21.373Z,31.55
2019-05-29T15:12:39.617Z,32.34
2019-05-29T15:15:13.536Z,31.16
2019-05-29T15:17:44.644Z,31.28
2019-05-29T15:20:17.090Z,33.00
2019-05-29T15:22:45.528Z,31.32
2019-05-29T15:25:23.727Z,30.96
2019-05-29T15:27:45.590Z,31.47
2019-05-29T15:30:22.082Z,30.23
2019-05-29T15:32:44.921Z,31.74
2019-05-29T15:35:16.629Z,32.38
2019-05-29T15:37:44.569Z,31.61
2019-05-29T15:40:14.771Z,33.82
2019-05-29T15:42:44.132Z,30.34
2019-05-29T15:45:14.129Z,29.79
2019-05-29T15:47:42.933Z,31.88
2019-05-29T15:50:13.675Z,29.68
2019-05-29T15:52:42.561Z,28.41
2019-05-29T15:55:27.025Z,30.04
2019-05-29T15:57:42.704Z,30.58
2019-05-29T16:00:13.724Z,29.49
2019-05-29T16:02:42.556Z,29.34
2019-05-29T16:05:12.957Z,29.66
2019-05-29T16:07:41.652Z,28.39
2019-05-29T16:10:14.671Z,29.76
2019-05-29T16:12:41.595Z,30.68
2019-05-29T16:15:11.296Z,29.15
2019-05-29T16:17:40.042Z,30.18
2019-05-29T16:20:10.533Z,28.90
2019-05-29T16:22:39.020Z,29.03
2019-05-29T16:25:08.453Z,29.28
2019-05-29T16:27:37.120Z,29.30
2019-05-29T16:30:08.555Z,29.74
2019-05-29T16:32:36.954Z,29.73
2019-05-29T16:35:07.167Z,29.91
2019-05-29T16:37:35.856Z,29.09
2019-05-29T16:40:14.202Z,30.26
2019-05-29T16:42:42.729Z,29.40
2019-05-29T16:45:12.269Z,28.81
2019-05-29T16:47:41.064Z,28.42
2019-05-29T16:50:10.456Z,28.68
2019-05-29T16:52:39.271Z,29.44
2019-05-29T16:55:08.346Z,30.13
2019-05-29T16:57:36.737Z,29.17
2019-05-29T17:00:08.790Z,29.02
2019-05-29T17:02:37.917Z,30.10
2019-05-29T17:05:07.153Z,29.85
2019-05-29T17:07:35.499Z,29.54
2019-05-29T17:10:07.865Z,29.84
2019-05-29T17:12:36.180Z,29.78
2019-05-29T17:15:12.900Z,30.84
2019-05-29T17:17:41.619Z,29.96
2019-05-29T17:20:10.638Z,30.53
2019-05-29T17:22:39.038Z,30.20
2019-05-29T17:25:07.975Z,29.78
2019-05-29T17:27:36.682Z,29.08
2019-05-29T17:30:07.488Z,29.26
2019-05-29T17:32:36.197Z,29.55
2019-05-29T17:35:08.913Z,29.74
2019-05-29T17:37:37.942Z,29.68
2019-05-29T17:40:08.053Z,30.50
2019-05-29T17:42:36.496Z,29.34
2019-05-29T17:45:08.353Z,28.79
2019-05-29T17:47:37.088Z,28.82
2019-05-29T17:50:07.260Z,29.53
2019-05-29T17:52:35.845Z,28.73
2019-05-29T17:55:06.188Z,28.36
2019-05-29T17:57:34.600Z,28.97
2019-05-29T18:00:04.825Z,29.56
2019-05-29T18:02:33.154Z,29.83
2019-05-29T18:05:01.480Z,28.77
2019-05-29T18:07:30.195Z,28.72
2019-05-29T18:09:58.508Z,29.74
2019-05-29T18:12:27.186Z,30.07
2019-05-29T18:14:56.111Z,29.43
2019-05-29T18:17:25.485Z,28.94
2019-05-29T18:19:54.018Z,30.78
2019-05-29T18:22:23.603Z,29.66
2019-05-29T18:24:52.363Z,30.93
2019-05-29T18:27:21.817Z,29.06
2019-05-29T18:29:50.352Z,30.39
2019-05-29T18:32:18.652Z,28.17
2019-05-29T18:34:47.136Z,29.88
2019-05-29T18:37:15.486Z,29.94
2019-05-29T18:39:44.216Z,29.56
2019-05-29T18:42:13.214Z,28.80
2019-05-29T18:44:41.645Z,29.04
2019-05-29T18:47:10.027Z,29.72
2019-05-29T18:49:38.859Z,30.44
2019-05-29T18:52:07.476Z,30.06
2019-05-29T18:54:35.961Z,28.14
2019-05-29T18:57:14.997Z,28.91
2019-05-29T18:59:34.827Z,29.15
2019-05-29T19:02:03.155Z,29.28
2019-05-29T19:04:32.032Z,28.18
2019-05-29T19:07:00.882Z,28.48
2019-05-29T19:09:29.807Z,30.25
2019-05-29T19:11:58.415Z,30.50
2019-05-29T19:14:27.883Z,30.42
2019-05-29T19:16:56.712Z,30.07
2019-05-29T19:19:26.155Z,29.73
2019-05-29T19:21:54.617Z,28.43
2019-05-29T19:24:22.927Z,26.60
2019-05-29T19:26:51.564Z,27.29
2019-05-29T19:29:19.879Z,27.88
2019-05-29T19:31:49.265Z,28.10
2019-05-29T19:34:18.517Z,28.74
2019-05-29T19:36:47.733Z,27.91
2019-05-29T19:39:16.131Z,27.75
2019-05-29T19:41:44.914Z,27.69
2019-05-29T19:44:13.829Z,27.99
2019-05-29T19:46:53.551Z,28.54
2019-05-29T19:49:12.559Z,27.36
2019-05-29T19:51:40.863Z,28.10
2019-05-29T19:54:09.606Z,28.38
2019-05-29T19:56:38.301Z,28.06
2019-05-29T19:59:06.655Z,28.62
2019-05-29T20:01:39.004Z,28.85
2019-05-29T20:04:05.519Z,28.57
2019-05-29T20:06:35.351Z,28.32
2019-05-29T20:09:06.363Z,27.76
2019-05-29T20:11:35.608Z,29.05
2019-05-29T20:14:07.495Z,28.04
2019-05-29T20:16:34.412Z,28.87
2019-05-29T20:19:02.723Z,27.50
2019-05-29T20:21:32.645Z,27.51
2019-05-29T20:24:01.130Z,28.48
2019-05-29T20:26:30.678Z,28.65
2019-05-29T20:28:59.436Z,27.62
2019-05-29T20:31:28.730Z,28.11
2019-05-29T20:33:57.061Z,27.36
2019-05-29T20:36:25.365Z,27.89
2019-05-29T20:38:53.701Z,27.46
2019-05-29T20:41:22.389Z,27.61
2019-05-29T20:43:50.713Z,28.43
2019-05-29T20:46:19.368Z,27.60
2019-05-29T20:48:47.767Z,27.16
2019-05-29T20:51:16.133Z,27.40
2019-05-29T20:53:44.455Z,27.58
2019-05-29T20:56:13.172Z,27.92
2019-05-29T20:58:42.044Z,28.28
2019-05-29T21:01:10.492Z,29.02
2019-05-29T21:03:40.805Z,28.44
2019-05-29T21:06:09.193Z,28.70
2019-05-29T21:08:38.741Z,28.41
2019-05-29T21:11:07.657Z,27.66
2019-05-29T21:13:37.346Z,28.05
2019-05-29T21:16:06.573Z,27.16
2019-05-29T21:18:35.797Z,28.22
2019-05-29T21:21:04.410Z,28.17
2019-05-29T21:23:34.192Z,28.47
2019-05-29T21:26:02.546Z,27.45
2019-05-29T21:28:39.879Z,27.10
2019-05-29T21:31:01.059Z,27.20
2019-05-29T21:33:29.362Z,27.39
2019-05-29T21:35:57.772Z,27.87
2019-05-29T21:38:26.341Z,26.81
2019-05-29T21:40:54.921Z,27.38
2019-05-29T21:43:23.574Z,27.94
2019-05-29T21:45:51.870Z,28.20
2019-05-29T21:48:20.372Z,28.23
2019-05-29T21:50:48.676Z,27.39
2019-05-29T21:53:17.001Z,27.46
2019-05-29T21:55:45.656Z,27.01
2019-05-29T21:58:14.691Z,27.77
2019-05-29T22:00:45.856Z,28.51
2019-05-29T22:03:14.884Z,28.22
2019-05-29T22:05:43.180Z,28.15
2019-05-29T22:08:11.593Z,27.22
2019-05-29T22:10:39.964Z,28.99
2019-05-29T22:13:08.366Z,29.21
2019-05-29T22:15:36.762Z,28.70
2019-05-29T22:18:05.642Z,28.44
2019-05-29T22:20:34.033Z,27.70
2019-05-29T22:23:02.861Z,28.62
2019-05-29T22:25:34.375Z,29.68
2019-05-29T22:28:01.765Z,27.80
2019-05-29T22:30:30.376Z,27.24
2019-05-29T22:32:59.575Z,28.66
2019-05-29T22:35:28.035Z,30.13
2019-05-29T22:37:57.566Z,28.24
2019-05-29T22:40:26.392Z,27.58
2019-05-29T22:42:55.606Z,27.70
2019-05-29T22:45:24.034Z,26.85
2019-05-29T22:47:53.689Z,27.49
2019-05-29T22:50:22.315Z,27.99
2019-05-29T22:52:51.764Z,28.65
2019-05-29T22:55:20.374Z,27.47
2019-05-29T22:57:48.683Z,27.59
2019-05-29T23:00:18.289Z,26.01
2019-05-29T23:02:46.664Z,27.11
2019-05-29T23:05:15.127Z,26.59
2019-05-29T23:07:43.427Z,26.90
2019-05-29T23:10:12.288Z,26.34
2019-05-29T23:12:40.708Z,27.82
2019-05-29T23:15:10.091Z,27.07
2019-05-29T23:17:38.463Z,26.54
2019-05-29T23:20:09.589Z,26.41
2019-05-29T23:22:38.412Z,25.95
2019-05-29T23:25:08.145Z,25.28
2019-05-29T23:27:36.646Z,25.78
2019-05-29T23:30:07.044Z,26.10
2019-05-29T23:32:35.512Z,26.06
2019-05-29T23:35:05.965Z,26.13
2019-05-29T23:37:34.287Z,26.04
2019-05-29T23:40:03.506Z,26.67
2019-05-29T23:42:32.364Z,25.86
2019-05-29T23:45:01.547Z,25.26
2019-05-29T23:47:30.526Z,25.89
2019-05-29T23:49:59.731Z,26.30
2019-05-29T23:52:28.519Z,25.77
2019-05-29T23:54:57.947Z,26.71
2019-05-29T23:57:26.419Z,26.44
